sensor_id;sensor_type;location;lat;lon;timestamp;temperature;humidity
11772;DHT22;12556;55.748;13.194;2023-09-12T00:01:03;17.20;99.90
11772;DHT22;12556;55.748;13.194;2023-09-12T00:03:32;17.20;99.90
11772;DHT22;12556;55.748;13.194;2023-09-12T00:06:02;17.20;99.90
11772;DHT22;12556;55.748;13.194;2023-09-12T00:08:29;17.20;99.90
11772;DHT22;12556;55.748;13.194;2023-09-12T00:11:00;17.30;99.90
11772;DHT22;12556;55.748;13.194;2023-09-12T00:13:27;17.30;99.90
11772;DHT22;12556;55.748;13.194;2023-09-12T00:15:54;17.30;99.90
11772;DHT22;12556;55.748;13.194;2023-09-12T00:18:21;17.30;99.90
11772;DHT22;12556;55.748;13.194;2023-09-12T00:20:48;17.30;99.90
11772;DHT22;12556;55.748;13.194;2023-09-12T00:23:16;17.40;99.90
11772;DHT22;12556;55.748;13.194;2023-09-12T00:25:43;17.30;99.90
11772;DHT22;12556;55.748;13.194;2023-09-12T00:28:10;17.40;99.90
11772;DHT22;12556;55.748;13.194;2023-09-12T00:30:36;17.40;99.90
11772;DHT22;12556;55.748;13.194;2023-09-12T00:33:04;17.40;99.90
11772;DHT22;12556;55.748;13.194;2023-09-12T00:35:31;17.40;99.90
11772;DHT22;12556;55.748;13.194;2023-09-12T00:37:57;17.40;99.90
11772;DHT22;12556;55.748;13.194;2023-09-12T00:40:26;17.40;99.90
11772;DHT22;12556;55.748;13.194;2023-09-12T00:42:52;17.30;99.90
11772;DHT22;12556;55.748;13.194;2023-09-12T00:45:19;17.40;99.90
11772;DHT22;12556;55.748;13.194;2023-09-12T00:47:47;17.40;99.90
11772;DHT22;12556;55.748;13.194;2023-09-12T00:50:15;17.40;99.90
11772;DHT22;12556;55.748;13.194;2023-09-12T00:52:43;17.30;99.90
11772;DHT22;12556;55.748;13.194;2023-09-12T00:55:10;17.30;99.90
11772;DHT22;12556;55.748;13.194;2023-09-12T00:57:38;17.30;99.90
11772;DHT22;12556;55.748;13.194;2023-09-12T01:00:07;17.20;99.90
11772;DHT22;12556;55.748;13.194;2023-09-12T01:02:38;17.30;99.90
11772;DHT22;12556;55.748;13.194;2023-09-12T01:05:06;17.30;99.90
11772;DHT22;12556;55.748;13.194;2023-09-12T01:07:33;17.20;99.90
11772;DHT22;12556;55.748;13.194;2023-09-12T01:10:00;17.20;99.90
11772;DHT22;12556;55.748;13.194;2023-09-12T01:12:29;17.20;99.90
11772;DHT22;12556;55.748;13.194;2023-09-12T01:14:57;17.20;99.90
11772;DHT22;12556;55.748;13.194;2023-09-12T01:17:25;17.20;99.90
11772;DHT22;12556;55.748;13.194;2023-09-12T01:19:52;17.10;99.90
11772;DHT22;12556;55.748;13.194;2023-09-12T01:22:34;17.10;99.90
11772;DHT22;12556;55.748;13.194;2023-09-12T01:25:14;17.10;99.90
11772;DHT22;12556;55.748;13.194;2023-09-12T01:27:46;17.10;99.90
11772;DHT22;12556;55.748;13.194;2023-09-12T01:30:17;17.00;99.90
11772;DHT22;12556;55.748;13.194;2023-09-12T01:32:45;17.00;99.90
11772;DHT22;12556;55.748;13.194;2023-09-12T01:35:12;17.00;99.90
11772;DHT22;12556;55.748;13.194;2023-09-12T01:37:39;17.00;99.90
11772;DHT22;12556;55.748;13.194;2023-09-12T01:40:07;16.90;99.90
11772;DHT22;12556;55.748;13.194;2023-09-12T01:42:37;16.90;99.90
11772;DHT22;12556;55.748;13.194;2023-09-12T01:45:09;16.90;99.90
11772;DHT22;12556;55.748;13.194;2023-09-12T01:47:37;16.80;99.90
11772;DHT22;12556;55.748;13.194;2023-09-12T01:50:07;16.80;99.90
11772;DHT22;12556;55.748;13.194;2023-09-12T01:52:38;16.80;99.90
11772;DHT22;12556;55.748;13.194;2023-09-12T01:55:07;16.80;99.90
11772;DHT22;12556;55.748;13.194;2023-09-12T01:57:35;16.70;99.90
11772;DHT22;12556;55.748;13.194;2023-09-12T02:00:04;16.70;99.90
11772;DHT22;12556;55.748;13.194;2023-09-12T02:02:32;16.70;99.90
11772;DHT22;12556;55.748;13.194;2023-09-12T02:05:07;16.60;99.90
11772;DHT22;12556;55.748;13.194;2023-09-12T02:07:39;16.70;99.90
11772;DHT22;12556;55.748;13.194;2023-09-12T02:10:07;16.70;99.90
11772;DHT22;12556;55.748;13.194;2023-09-12T02:12:35;16.70;99.90
11772;DHT22;12556;55.748;13.194;2023-09-12T02:15:02;16.70;99.90
11772;DHT22;12556;55.748;13.194;2023-09-12T02:17:29;16.70;99.90
11772;DHT22;12556;55.748;13.194;2023-09-12T02:19:57;16.70;99.90
11772;DHT22;12556;55.748;13.194;2023-09-12T02:22:24;16.80;99.90
11772;DHT22;12556;55.748;13.194;2023-09-12T02:24:51;16.80;99.90
11772;DHT22;12556;55.748;13.194;2023-09-12T02:27:18;16.90;99.90
11772;DHT22;12556;55.748;13.194;2023-09-12T02:29:45;16.90;99.90
11772;DHT22;12556;55.748;13.194;2023-09-12T02:32:12;16.90;99.90
11772;DHT22;12556;55.748;13.194;2023-09-12T02:34:38;16.90;99.90
11772;DHT22;12556;55.748;13.194;2023-09-12T02:37:07;16.90;99.90
11772;DHT22;12556;55.748;13.194;2023-09-12T02:39:34;16.90;99.90
11772;DHT22;12556;55.748;13.194;2023-09-12T02:42:01;16.90;99.90
11772;DHT22;12556;55.748;13.194;2023-09-12T02:44:28;16.90;99.90
11772;DHT22;12556;55.748;13.194;2023-09-12T02:46:54;16.90;99.90
11772;DHT22;12556;55.748;13.194;2023-09-12T02:49:21;17.00;99.90
11772;DHT22;12556;55.748;13.194;2023-09-12T02:51:48;17.00;99.90
11772;DHT22;12556;55.748;13.194;2023-09-12T02:54:16;17.00;99.90
11772;DHT22;12556;55.748;13.194;2023-09-12T02:56:43;17.00;99.90
11772;DHT22;12556;55.748;13.194;2023-09-12T02:59:10;16.90;99.90
11772;DHT22;12556;55.748;13.194;2023-09-12T03:01:37;17.00;99.90
11772;DHT22;12556;55.748;13.194;2023-09-12T03:04:04;17.00;99.90
11772;DHT22;12556;55.748;13.194;2023-09-12T03:06:31;17.10;99.90
11772;DHT22;12556;55.748;13.194;2023-09-12T03:08:58;17.20;99.90
11772;DHT22;12556;55.748;13.194;2023-09-12T03:11:27;17.30;99.90
11772;DHT22;12556;55.748;13.194;2023-09-12T03:13:55;17.40;99.90
11772;DHT22;12556;55.748;13.194;2023-09-12T03:16:22;17.40;99.90
11772;DHT22;12556;55.748;13.194;2023-09-12T03:18:49;17.50;99.90
11772;DHT22;12556;55.748;13.194;2023-09-12T03:21:16;17.50;99.90
11772;DHT22;12556;55.748;13.194;2023-09-12T03:23:43;17.60;99.90
11772;DHT22;12556;55.748;13.194;2023-09-12T03:26:10;17.60;99.90
11772;DHT22;12556;55.748;13.194;2023-09-12T03:28:38;17.60;99.90
11772;DHT22;12556;55.748;13.194;2023-09-12T03:31:07;17.70;99.90
11772;DHT22;12556;55.748;13.194;2023-09-12T03:33:37;17.60;99.90
11772;DHT22;12556;55.748;13.194;2023-09-12T03:36:05;17.70;99.90
11772;DHT22;12556;55.748;13.194;2023-09-12T03:38:33;17.80;99.90
11772;DHT22;12556;55.748;13.194;2023-09-12T03:41:00;17.80;99.90
11772;DHT22;12556;55.748;13.194;2023-09-12T03:43:27;17.90;99.90
11772;DHT22;12556;55.748;13.194;2023-09-12T03:45:55;17.80;99.90
11772;DHT22;12556;55.748;13.194;2023-09-12T03:48:22;17.80;99.90
11772;DHT22;12556;55.748;13.194;2023-09-12T03:50:48;17.90;99.90
11772;DHT22;12556;55.748;13.194;2023-09-12T03:53:15;17.90;99.90
11772;DHT22;12556;55.748;13.194;2023-09-12T03:55:42;17.80;99.90
11772;DHT22;12556;55.748;13.194;2023-09-12T03:58:10;17.80;99.90
11772;DHT22;12556;55.748;13.194;2023-09-12T04:00:36;17.80;99.90
11772;DHT22;12556;55.748;13.194;2023-09-12T04:03:05;17.80;99.90
11772;DHT22;12556;55.748;13.194;2023-09-12T04:05:32;17.70;99.90
11772;DHT22;12556;55.748;13.194;2023-09-12T04:07:58;17.70;99.90
11772;DHT22;12556;55.748;13.194;2023-09-12T04:10:25;17.70;99.90
11772;DHT22;12556;55.748;13.194;2023-09-12T04:12:52;17.80;99.90
11772;DHT22;12556;55.748;13.194;2023-09-12T04:15:19;17.70;99.90
11772;DHT22;12556;55.748;13.194;2023-09-12T04:17:46;17.80;99.90
11772;DHT22;12556;55.748;13.194;2023-09-12T04:20:14;17.70;99.90
11772;DHT22;12556;55.748;13.194;2023-09-12T04:22:42;17.80;99.90
11772;DHT22;12556;55.748;13.194;2023-09-12T04:25:09;17.70;99.90
11772;DHT22;12556;55.748;13.194;2023-09-12T04:27:36;17.70;99.90
11772;DHT22;12556;55.748;13.194;2023-09-12T04:30:04;17.80;99.90
11772;DHT22;12556;55.748;13.194;2023-09-12T04:32:31;17.80;99.90
11772;DHT22;12556;55.748;13.194;2023-09-12T04:34:58;17.80;99.90
11772;DHT22;12556;55.748;13.194;2023-09-12T04:37:26;17.80;99.90
11772;DHT22;12556;55.748;13.194;2023-09-12T04:39:53;17.80;99.90
11772;DHT22;12556;55.748;13.194;2023-09-12T04:42:20;17.80;99.90
11772;DHT22;12556;55.748;13.194;2023-09-12T04:44:46;17.80;99.90
11772;DHT22;12556;55.748;13.194;2023-09-12T04:47:13;17.90;99.90
11772;DHT22;12556;55.748;13.194;2023-09-12T04:49:43;17.90;99.90
11772;DHT22;12556;55.748;13.194;2023-09-12T04:52:10;17.90;99.90
11772;DHT22;12556;55.748;13.194;2023-09-12T04:54:38;17.90;99.90
11772;DHT22;12556;55.748;13.194;2023-09-12T04:57:05;17.90;99.90
11772;DHT22;12556;55.748;13.194;2023-09-12T04:59:32;17.90;99.90
11772;DHT22;12556;55.748;13.194;2023-09-12T05:01:59;17.90;99.90
11772;DHT22;12556;55.748;13.194;2023-09-12T05:04:26;18.00;99.90
11772;DHT22;12556;55.748;13.194;2023-09-12T05:06:53;18.00;99.90
11772;DHT22;12556;55.748;13.194;2023-09-12T05:09:20;18.00;99.90
11772;DHT22;12556;55.748;13.194;2023-09-12T05:11:48;18.10;99.90
11772;DHT22;12556;55.748;13.194;2023-09-12T05:14:15;18.10;99.90
11772;DHT22;12556;55.748;13.194;2023-09-12T05:16:42;18.10;99.90
11772;DHT22;12556;55.748;13.194;2023-09-12T05:19:09;18.10;99.90
11772;DHT22;12556;55.748;13.194;2023-09-12T05:21:37;18.10;99.90
11772;DHT22;12556;55.748;13.194;2023-09-12T05:24:04;18.20;99.90
11772;DHT22;12556;55.748;13.194;2023-09-12T05:26:31;18.10;99.90
11772;DHT22;12556;55.748;13.194;2023-09-12T05:28:59;18.10;99.90
11772;DHT22;12556;55.748;13.194;2023-09-12T05:31:26;18.20;99.90
11772;DHT22;12556;55.748;13.194;2023-09-12T05:33:53;18.20;99.90
11772;DHT22;12556;55.748;13.194;2023-09-12T05:36:20;18.20;99.90
11772;DHT22;12556;55.748;13.194;2023-09-12T05:38:47;18.30;99.90
11772;DHT22;12556;55.748;13.194;2023-09-12T05:41:14;18.30;99.90
11772;DHT22;12556;55.748;13.194;2023-09-12T05:43:41;18.30;99.90
11772;DHT22;12556;55.748;13.194;2023-09-12T05:46:09;18.30;99.90
11772;DHT22;12556;55.748;13.194;2023-09-12T05:48:36;18.40;99.90
11772;DHT22;12556;55.748;13.194;2023-09-12T05:51:03;18.40;99.90
11772;DHT22;12556;55.748;13.194;2023-09-12T05:53:29;18.40;99.90
11772;DHT22;12556;55.748;13.194;2023-09-12T05:55:56;18.40;99.90
11772;DHT22;12556;55.748;13.194;2023-09-12T05:58:23;18.50;99.90
11772;DHT22;12556;55.748;13.194;2023-09-12T06:00:50;18.50;99.90
11772;DHT22;12556;55.748;13.194;2023-09-12T06:03:18;18.50;99.90
11772;DHT22;12556;55.748;13.194;2023-09-12T06:05:45;18.50;99.90
11772;DHT22;12556;55.748;13.194;2023-09-12T06:08:12;18.50;99.90
11772;DHT22;12556;55.748;13.194;2023-09-12T06:10:38;18.50;99.90
11772;DHT22;12556;55.748;13.194;2023-09-12T06:13:05;18.50;99.90
11772;DHT22;12556;55.748;13.194;2023-09-12T06:15:32;18.50;99.90
11772;DHT22;12556;55.748;13.194;2023-09-12T06:17:59;18.50;99.90
11772;DHT22;12556;55.748;13.194;2023-09-12T06:20:27;18.60;99.90
11772;DHT22;12556;55.748;13.194;2023-09-12T06:22:54;18.60;99.90
11772;DHT22;12556;55.748;13.194;2023-09-12T06:25:21;18.60;99.90
11772;DHT22;12556;55.748;13.194;2023-09-12T06:27:47;18.60;99.90
11772;DHT22;12556;55.748;13.194;2023-09-12T06:30:15;18.60;99.90
11772;DHT22;12556;55.748;13.194;2023-09-12T06:32:42;18.60;99.90
11772;DHT22;12556;55.748;13.194;2023-09-12T06:35:09;18.60;99.90
11772;DHT22;12556;55.748;13.194;2023-09-12T06:37:37;18.60;99.90
11772;DHT22;12556;55.748;13.194;2023-09-12T06:40:06;18.60;99.90
11772;DHT22;12556;55.748;13.194;2023-09-12T06:42:33;18.60;99.90
11772;DHT22;12556;55.748;13.194;2023-09-12T06:45:00;18.70;99.90
11772;DHT22;12556;55.748;13.194;2023-09-12T06:47:26;18.70;99.90
11772;DHT22;12556;55.748;13.194;2023-09-12T06:49:53;18.70;99.90
11772;DHT22;12556;55.748;13.194;2023-09-12T06:52:20;18.70;99.90
11772;DHT22;12556;55.748;13.194;2023-09-12T06:54:48;18.70;99.90
11772;DHT22;12556;55.748;13.194;2023-09-12T06:57:15;18.70;99.90
11772;DHT22;12556;55.748;13.194;2023-09-12T06:59:42;18.70;99.90
11772;DHT22;12556;55.748;13.194;2023-09-12T07:02:09;18.70;99.90
11772;DHT22;12556;55.748;13.194;2023-09-12T07:04:38;18.70;99.90
11772;DHT22;12556;55.748;13.194;2023-09-12T07:07:05;18.70;99.90
11772;DHT22;12556;55.748;13.194;2023-09-12T07:09:32;18.80;99.90
11772;DHT22;12556;55.748;13.194;2023-09-12T07:12:00;18.80;99.90
11772;DHT22;12556;55.748;13.194;2023-09-12T07:14:27;18.80;99.90
11772;DHT22;12556;55.748;13.194;2023-09-12T07:16:55;19.00;99.90
11772;DHT22;12556;55.748;13.194;2023-09-12T07:19:22;18.90;99.90
11772;DHT22;12556;55.748;13.194;2023-09-12T07:21:49;18.90;99.90
11772;DHT22;12556;55.748;13.194;2023-09-12T07:24:16;19.00;99.90
11772;DHT22;12556;55.748;13.194;2023-09-12T07:26:43;19.00;99.90
11772;DHT22;12556;55.748;13.194;2023-09-12T07:29:13;19.00;99.90
11772;DHT22;12556;55.748;13.194;2023-09-12T07:31:40;19.10;99.90
11772;DHT22;12556;55.748;13.194;2023-09-12T07:34:07;19.10;99.90
11772;DHT22;12556;55.748;13.194;2023-09-12T07:36:35;19.20;99.90
11772;DHT22;12556;55.748;13.194;2023-09-12T07:39:02;19.20;99.90
11772;DHT22;12556;55.748;13.194;2023-09-12T07:41:29;19.30;99.90
11772;DHT22;12556;55.748;13.194;2023-09-12T07:43:56;19.40;99.90
11772;DHT22;12556;55.748;13.194;2023-09-12T07:46:24;19.50;99.90
11772;DHT22;12556;55.748;13.194;2023-09-12T07:48:52;19.50;99.90
11772;DHT22;12556;55.748;13.194;2023-09-12T07:51:19;19.60;99.90
11772;DHT22;12556;55.748;13.194;2023-09-12T07:53:48;19.60;99.90
11772;DHT22;12556;55.748;13.194;2023-09-12T07:56:15;19.60;99.90
11772;DHT22;12556;55.748;13.194;2023-09-12T07:58:42;19.60;99.90
11772;DHT22;12556;55.748;13.194;2023-09-12T08:01:09;19.60;99.90
11772;DHT22;12556;55.748;13.194;2023-09-12T08:03:39;19.70;99.90
11772;DHT22;12556;55.748;13.194;2023-09-12T08:06:06;19.70;99.90
11772;DHT22;12556;55.748;13.194;2023-09-12T08:08:33;19.70;99.90
11772;DHT22;12556;55.748;13.194;2023-09-12T08:11:00;19.70;99.90
11772;DHT22;12556;55.748;13.194;2023-09-12T08:13:28;19.70;99.90
11772;DHT22;12556;55.748;13.194;2023-09-12T08:15:56;19.70;99.90
11772;DHT22;12556;55.748;13.194;2023-09-12T08:18:26;19.60;99.90
11772;DHT22;12556;55.748;13.194;2023-09-12T08:20:55;19.60;99.90
11772;DHT22;12556;55.748;13.194;2023-09-12T08:23:21;19.60;99.90
11772;DHT22;12556;55.748;13.194;2023-09-12T08:25:48;19.60;99.90
11772;DHT22;12556;55.748;13.194;2023-09-12T08:28:15;19.60;99.90
11772;DHT22;12556;55.748;13.194;2023-09-12T08:30:43;19.70;99.90
11772;DHT22;12556;55.748;13.194;2023-09-12T08:33:10;19.60;99.90
11772;DHT22;12556;55.748;13.194;2023-09-12T08:35:37;19.70;99.90
11772;DHT22;12556;55.748;13.194;2023-09-12T08:38:05;19.70;99.90
11772;DHT22;12556;55.748;13.194;2023-09-12T08:40:32;19.70;99.90
11772;DHT22;12556;55.748;13.194;2023-09-12T08:43:01;19.80;99.90
11772;DHT22;12556;55.748;13.194;2023-09-12T08:45:29;19.80;99.90
11772;DHT22;12556;55.748;13.194;2023-09-12T08:47:58;19.80;99.90
11772;DHT22;12556;55.748;13.194;2023-09-12T08:50:26;19.90;99.90
11772;DHT22;12556;55.748;13.194;2023-09-12T08:52:56;19.90;99.90
11772;DHT22;12556;55.748;13.194;2023-09-12T08:55:25;19.90;99.90
11772;DHT22;12556;55.748;13.194;2023-09-12T08:57:53;20.00;99.90
11772;DHT22;12556;55.748;13.194;2023-09-12T09:00:23;20.00;99.90
11772;DHT22;12556;55.748;13.194;2023-09-12T09:02:50;20.10;99.90
11772;DHT22;12556;55.748;13.194;2023-09-12T09:05:20;20.10;99.90
11772;DHT22;12556;55.748;13.194;2023-09-12T09:07:48;20.20;99.90
11772;DHT22;12556;55.748;13.194;2023-09-12T09:10:16;20.30;99.90
11772;DHT22;12556;55.748;13.194;2023-09-12T09:12:45;20.30;99.90
11772;DHT22;12556;55.748;13.194;2023-09-12T09:15:25;20.40;99.90
11772;DHT22;12556;55.748;13.194;2023-09-12T09:17:53;20.50;99.90
11772;DHT22;12556;55.748;13.194;2023-09-12T09:20:26;20.60;99.90
11772;DHT22;12556;55.748;13.194;2023-09-12T09:23:00;20.70;99.90
11772;DHT22;12556;55.748;13.194;2023-09-12T09:25:30;20.80;99.90
11772;DHT22;12556;55.748;13.194;2023-09-12T09:28:01;20.80;99.90
11772;DHT22;12556;55.748;13.194;2023-09-12T09:30:40;20.90;99.90
11772;DHT22;12556;55.748;13.194;2023-09-12T09:33:08;21.00;99.90
11772;DHT22;12556;55.748;13.194;2023-09-12T09:35:35;21.00;99.90
11772;DHT22;12556;55.748;13.194;2023-09-12T09:38:03;21.10;99.90
11772;DHT22;12556;55.748;13.194;2023-09-12T09:40:30;21.10;99.90
11772;DHT22;12556;55.748;13.194;2023-09-12T09:43:01;21.20;99.90
11772;DHT22;12556;55.748;13.194;2023-09-12T09:45:28;21.20;99.90
11772;DHT22;12556;55.748;13.194;2023-09-12T09:47:57;21.30;99.90
11772;DHT22;12556;55.748;13.194;2023-09-12T09:50:25;21.40;99.90
11772;DHT22;12556;55.748;13.194;2023-09-12T09:52:54;21.40;99.90
11772;DHT22;12556;55.748;13.194;2023-09-12T09:55:21;21.50;99.90
11772;DHT22;12556;55.748;13.194;2023-09-12T09:57:49;21.60;99.90
11772;DHT22;12556;55.748;13.194;2023-09-12T10:00:20;21.60;99.90
11772;DHT22;12556;55.748;13.194;2023-09-12T10:02:49;21.70;99.90
11772;DHT22;12556;55.748;13.194;2023-09-12T10:05:17;21.70;99.90
11772;DHT22;12556;55.748;13.194;2023-09-12T10:07:47;21.70;99.90
11772;DHT22;12556;55.748;13.194;2023-09-12T10:10:15;21.70;99.90
11772;DHT22;12556;55.748;13.194;2023-09-12T10:12:49;21.70;99.90
11772;DHT22;12556;55.748;13.194;2023-09-12T10:15:20;21.70;99.90
11772;DHT22;12556;55.748;13.194;2023-09-12T10:17:52;21.80;99.90
11772;DHT22;12556;55.748;13.194;2023-09-12T10:20:25;21.80;99.90
11772;DHT22;12556;55.748;13.194;2023-09-12T10:23:00;21.70;99.90
11772;DHT22;12556;55.748;13.194;2023-09-12T10:25:29;21.70;99.90
11772;DHT22;12556;55.748;13.194;2023-09-12T10:27:56;21.60;99.90
11772;DHT22;12556;55.748;13.194;2023-09-12T10:30:25;21.70;99.90
11772;DHT22;12556;55.748;13.194;2023-09-12T10:32:52;21.70;99.90
11772;DHT22;12556;55.748;13.194;2023-09-12T10:35:20;21.60;99.90
11772;DHT22;12556;55.748;13.194;2023-09-12T10:37:49;21.60;99.90
11772;DHT22;12556;55.748;13.194;2023-09-12T10:40:18;21.60;99.90
11772;DHT22;12556;55.748;13.194;2023-09-12T10:42:46;21.60;99.90
11772;DHT22;12556;55.748;13.194;2023-09-12T10:45:13;21.60;99.90
11772;DHT22;12556;55.748;13.194;2023-09-12T10:47:42;21.50;99.90
11772;DHT22;12556;55.748;13.194;2023-09-12T10:50:09;21.50;99.90
11772;DHT22;12556;55.748;13.194;2023-09-12T10:52:36;21.50;99.90
11772;DHT22;12556;55.748;13.194;2023-09-12T10:55:06;21.40;99.90
11772;DHT22;12556;55.748;13.194;2023-09-12T10:57:33;21.40;99.90
11772;DHT22;12556;55.748;13.194;2023-09-12T11:00:18;21.20;99.90
11772;DHT22;12556;55.748;13.194;2023-09-12T11:02:46;21.20;99.90
11772;DHT22;12556;55.748;13.194;2023-09-12T11:05:37;21.10;99.90
11772;DHT22;12556;55.748;13.194;2023-09-12T11:08:05;21.10;99.90
11772;DHT22;12556;55.748;13.194;2023-09-12T11:10:31;21.10;99.90
11772;DHT22;12556;55.748;13.194;2023-09-12T11:12:58;21.10;99.90
11772;DHT22;12556;55.748;13.194;2023-09-12T11:15:27;21.10;99.90
11772;DHT22;12556;55.748;13.194;2023-09-12T11:18:02;21.20;99.90
11772;DHT22;12556;55.748;13.194;2023-09-12T11:20:53;21.20;99.90
11772;DHT22;12556;55.748;13.194;2023-09-12T11:23:25;21.30;99.90
11772;DHT22;12556;55.748;13.194;2023-09-12T11:26:03;21.30;99.90
11772;DHT22;12556;55.748;13.194;2023-09-12T11:28:31;21.40;99.90
11772;DHT22;12556;55.748;13.194;2023-09-12T11:30:58;21.50;99.90
11772;DHT22;12556;55.748;13.194;2023-09-12T11:33:26;21.70;99.90
11772;DHT22;12556;55.748;13.194;2023-09-12T11:35:54;21.70;99.90
11772;DHT22;12556;55.748;13.194;2023-09-12T11:38:26;21.90;99.90
11772;DHT22;12556;55.748;13.194;2023-09-12T11:40:54;22.10;99.90
11772;DHT22;12556;55.748;13.194;2023-09-12T11:43:24;22.30;99.90
11772;DHT22;12556;55.748;13.194;2023-09-12T11:45:51;22.50;99.90
11772;DHT22;12556;55.748;13.194;2023-09-12T11:48:18;22.70;99.90
11772;DHT22;12556;55.748;13.194;2023-09-12T11:50:52;22.80;99.90
11772;DHT22;12556;55.748;13.194;2023-09-12T11:53:20;22.90;99.90
11772;DHT22;12556;55.748;13.194;2023-09-12T11:55:53;23.00;99.90
11772;DHT22;12556;55.748;13.194;2023-09-12T11:58:20;23.10;99.90
11772;DHT22;12556;55.748;13.194;2023-09-12T12:00:49;23.10;99.90
11772;DHT22;12556;55.748;13.194;2023-09-12T12:03:17;23.20;99.90
11772;DHT22;12556;55.748;13.194;2023-09-12T12:05:44;23.20;99.90
11772;DHT22;12556;55.748;13.194;2023-09-12T12:08:14;23.30;99.90
11772;DHT22;12556;55.748;13.194;2023-09-12T12:10:41;23.50;99.90
11772;DHT22;12556;55.748;13.194;2023-09-12T12:13:11;23.50;99.90
11772;DHT22;12556;55.748;13.194;2023-09-12T12:15:38;23.70;99.90
11772;DHT22;12556;55.748;13.194;2023-09-12T12:18:05;23.70;99.90
11772;DHT22;12556;55.748;13.194;2023-09-12T12:20:32;23.70;99.90
11772;DHT22;12556;55.748;13.194;2023-09-12T12:22:59;23.70;99.90
11772;DHT22;12556;55.748;13.194;2023-09-12T12:25:31;23.80;99.90
11772;DHT22;12556;55.748;13.194;2023-09-12T12:27:58;23.90;99.90
11772;DHT22;12556;55.748;13.194;2023-09-12T12:30:26;24.00;99.90
11772;DHT22;12556;55.748;13.194;2023-09-12T12:32:56;24.10;99.90
11772;DHT22;12556;55.748;13.194;2023-09-12T12:35:24;24.20;99.90
11772;DHT22;12556;55.748;13.194;2023-09-12T12:37:54;24.20;99.90
11772;DHT22;12556;55.748;13.194;2023-09-12T12:40:22;24.30;99.90
11772;DHT22;12556;55.748;13.194;2023-09-12T12:42:50;24.50;99.90
11772;DHT22;12556;55.748;13.194;2023-09-12T12:45:18;24.70;99.90
11772;DHT22;12556;55.748;13.194;2023-09-12T12:47:46;24.80;99.90
11772;DHT22;12556;55.748;13.194;2023-09-12T12:50:17;24.90;99.90
11772;DHT22;12556;55.748;13.194;2023-09-12T12:52:47;24.90;99.90
11772;DHT22;12556;55.748;13.194;2023-09-12T12:55:15;24.90;99.90
11772;DHT22;12556;55.748;13.194;2023-09-12T12:57:43;24.90;99.90
11772;DHT22;12556;55.748;13.194;2023-09-12T13:00:13;24.80;99.90
11772;DHT22;12556;55.748;13.194;2023-09-12T13:02:41;24.80;99.90
11772;DHT22;12556;55.748;13.194;2023-09-12T13:05:20;24.80;99.90
11772;DHT22;12556;55.748;13.194;2023-09-12T13:07:47;24.70;99.90
11772;DHT22;12556;55.748;13.194;2023-09-12T13:10:14;24.60;99.90
11772;DHT22;12556;55.748;13.194;2023-09-12T13:12:40;24.50;99.90
11772;DHT22;12556;55.748;13.194;2023-09-12T13:15:12;24.40;99.90
11772;DHT22;12556;55.748;13.194;2023-09-12T13:17:40;24.40;99.90
11772;DHT22;12556;55.748;13.194;2023-09-12T13:20:08;24.30;99.90
11772;DHT22;12556;55.748;13.194;2023-09-12T13:22:35;24.20;99.90
11772;DHT22;12556;55.748;13.194;2023-09-12T13:25:02;24.20;99.90
11772;DHT22;12556;55.748;13.194;2023-09-12T13:27:29;24.30;99.90
11772;DHT22;12556;55.748;13.194;2023-09-12T13:29:56;24.30;99.90
11772;DHT22;12556;55.748;13.194;2023-09-12T13:32:24;24.30;99.90
11772;DHT22;12556;55.748;13.194;2023-09-12T13:34:52;24.30;99.90
11772;DHT22;12556;55.748;13.194;2023-09-12T13:37:19;24.40;99.90
11772;DHT22;12556;55.748;13.194;2023-09-12T13:39:46;24.40;99.90
11772;DHT22;12556;55.748;13.194;2023-09-12T13:42:15;24.50;99.90
11772;DHT22;12556;55.748;13.194;2023-09-12T13:44:44;24.60;99.90
11772;DHT22;12556;55.748;13.194;2023-09-12T13:47:10;24.70;99.90
11772;DHT22;12556;55.748;13.194;2023-09-12T13:49:39;24.90;99.90
11772;DHT22;12556;55.748;13.194;2023-09-12T13:52:06;25.00;99.90
11772;DHT22;12556;55.748;13.194;2023-09-12T13:54:32;25.00;99.90
11772;DHT22;12556;55.748;13.194;2023-09-12T13:56:59;25.10;99.90
11772;DHT22;12556;55.748;13.194;2023-09-12T13:59:26;25.10;99.90
11772;DHT22;12556;55.748;13.194;2023-09-12T14:01:53;25.20;99.90
11772;DHT22;12556;55.748;13.194;2023-09-12T14:04:19;25.20;99.90
11772;DHT22;12556;55.748;13.194;2023-09-12T14:06:48;25.10;99.90
11772;DHT22;12556;55.748;13.194;2023-09-12T14:09:14;25.00;99.90
11772;DHT22;12556;55.748;13.194;2023-09-12T14:11:41;25.10;99.90
11772;DHT22;12556;55.748;13.194;2023-09-12T14:14:09;25.10;99.90
11772;DHT22;12556;55.748;13.194;2023-09-12T14:16:35;25.10;99.90
11772;DHT22;12556;55.748;13.194;2023-09-12T14:19:02;25.00;99.90
11772;DHT22;12556;55.748;13.194;2023-09-12T14:21:29;24.80;99.90
11772;DHT22;12556;55.748;13.194;2023-09-12T14:23:57;24.80;99.90
11772;DHT22;12556;55.748;13.194;2023-09-12T14:26:24;24.80;99.90
11772;DHT22;12556;55.748;13.194;2023-09-12T14:28:51;24.70;99.90
11772;DHT22;12556;55.748;13.194;2023-09-12T14:31:18;24.60;99.90
11772;DHT22;12556;55.748;13.194;2023-09-12T14:33:45;24.50;99.90
11772;DHT22;12556;55.748;13.194;2023-09-12T14:36:12;24.40;99.90
11772;DHT22;12556;55.748;13.194;2023-09-12T14:38:39;24.40;99.90
11772;DHT22;12556;55.748;13.194;2023-09-12T14:41:13;24.30;99.90
11772;DHT22;12556;55.748;13.194;2023-09-12T14:43:40;24.30;99.90
11772;DHT22;12556;55.748;13.194;2023-09-12T14:46:07;24.10;99.90
11772;DHT22;12556;55.748;13.194;2023-09-12T14:48:35;24.10;99.90
11772;DHT22;12556;55.748;13.194;2023-09-12T14:51:02;24.00;99.90
11772;DHT22;12556;55.748;13.194;2023-09-12T14:53:29;24.00;99.90
11772;DHT22;12556;55.748;13.194;2023-09-12T14:55:57;23.90;99.90
11772;DHT22;12556;55.748;13.194;2023-09-12T14:58:25;23.90;99.90
11772;DHT22;12556;55.748;13.194;2023-09-12T15:00:53;23.80;99.90
11772;DHT22;12556;55.748;13.194;2023-09-12T15:03:20;23.80;99.90
11772;DHT22;12556;55.748;13.194;2023-09-12T15:05:47;23.70;99.90
11772;DHT22;12556;55.748;13.194;2023-09-12T15:08:14;23.60;99.90
11772;DHT22;12556;55.748;13.194;2023-09-12T15:10:41;23.60;99.90
11772;DHT22;12556;55.748;13.194;2023-09-12T15:13:08;23.60;99.90
11772;DHT22;12556;55.748;13.194;2023-09-12T15:15:37;23.60;99.90
11772;DHT22;12556;55.748;13.194;2023-09-12T15:18:04;23.70;99.90
11772;DHT22;12556;55.748;13.194;2023-09-12T15:20:31;23.50;99.90